sensor_id;sensor_type;location;lat;lon;timestamp;P1;durP1;ratioP1;P2;durP2;ratioP2
43457;SDS011;29046;54.184;18.680;2023-08-24T00:00:44;8.73;;;2.83;;
43457;SDS011;29046;54.184;18.680;2023-08-24T00:03:31;9.23;;;3.22;;
43457;SDS011;29046;54.184;18.680;2023-08-24T00:05:59;5.18;;;3.08;;
43457;SDS011;29046;54.184;18.680;2023-08-24T00:08:27;7.85;;;3.20;;
43457;SDS011;29046;54.184;18.680;2023-08-24T00:10:54;5.93;;;3.67;;
43457;SDS011;29046;54.184;18.680;2023-08-24T00:13:22;6.53;;;3.75;;
43457;SDS011;29046;54.184;18.680;2023-08-24T00:15:49;9.82;;;3.50;;
43457;SDS011;29046;54.184;18.680;2023-08-24T00:18:18;7.32;;;3.42;;
43457;SDS011;29046;54.184;18.680;2023-08-24T00:20:49;7.40;;;3.78;;
43457;SDS011;29046;54.184;18.680;2023-08-24T00:23:16;9.32;;;3.65;;
43457;SDS011;29046;54.184;18.680;2023-08-24T00:25:44;5.97;;;2.92;;
43457;SDS011;29046;54.184;18.680;2023-08-24T00:28:11;6.88;;;3.90;;
43457;SDS011;29046;54.184;18.680;2023-08-24T00:30:39;7.38;;;3.42;;
43457;SDS011;29046;54.184;18.680;2023-08-24T00:33:06;8.73;;;3.20;;
43457;SDS011;29046;54.184;18.680;2023-08-24T00:35:34;5.38;;;2.92;;
43457;SDS011;29046;54.184;18.680;2023-08-24T00:38:02;5.82;;;2.63;;
43457;SDS011;29046;54.184;18.680;2023-08-24T00:40:29;7.88;;;3.08;;
43457;SDS011;29046;54.184;18.680;2023-08-24T00:42:57;5.25;;;2.80;;
43457;SDS011;29046;54.184;18.680;2023-08-24T00:45:24;4.28;;;2.40;;
43457;SDS011;29046;54.184;18.680;2023-08-24T00:47:52;6.45;;;2.55;;
43457;SDS011;29046;54.184;18.680;2023-08-24T00:50:20;3.70;;;2.38;;
43457;SDS011;29046;54.184;18.680;2023-08-24T00:52:48;8.35;;;2.58;;
43457;SDS011;29046;54.184;18.680;2023-08-24T00:55:16;4.20;;;2.20;;
43457;SDS011;29046;54.184;18.680;2023-08-24T00:57:43;5.90;;;2.30;;
43457;SDS011;29046;54.184;18.680;2023-08-24T01:00:11;5.22;;;2.50;;
43457;SDS011;29046;54.184;18.680;2023-08-24T01:02:40;5.20;;;2.53;;
43457;SDS011;29046;54.184;18.680;2023-08-24T01:05:08;3.63;;;2.30;;
43457;SDS011;29046;54.184;18.680;2023-08-24T01:07:37;5.20;;;2.63;;
43457;SDS011;29046;54.184;18.680;2023-08-24T01:10:05;4.65;;;1.90;;
43457;SDS011;29046;54.184;18.680;2023-08-24T01:15:15;5.57;;;2.60;;
43457;SDS011;29046;54.184;18.680;2023-08-24T01:17:44;3.90;;;2.10;;
43457;SDS011;29046;54.184;18.680;2023-08-24T01:20:14;2.42;;;1.88;;
43457;SDS011;29046;54.184;18.680;2023-08-24T01:28:01;4.53;;;1.88;;
43457;SDS011;29046;54.184;18.680;2023-08-24T01:30:29;4.00;;;1.95;;
43457;SDS011;29046;54.184;18.680;2023-08-24T01:33:00;7.90;;;2.15;;
43457;SDS011;29046;54.184;18.680;2023-08-24T01:35:30;4.05;;;2.05;;
43457;SDS011;29046;54.184;18.680;2023-08-24T01:37:58;3.95;;;2.03;;
43457;SDS011;29046;54.184;18.680;2023-08-24T01:45:32;3.80;;;2.35;;
43457;SDS011;29046;54.184;18.680;2023-08-24T01:48:00;4.13;;;1.92;;
43457;SDS011;29046;54.184;18.680;2023-08-24T01:50:30;4.45;;;2.17;;
43457;SDS011;29046;54.184;18.680;2023-08-24T01:52:57;7.57;;;2.55;;
43457;SDS011;29046;54.184;18.680;2023-08-24T01:55:26;3.83;;;1.48;;
43457;SDS011;29046;54.184;18.680;2023-08-24T01:57:54;3.33;;;2.20;;
43457;SDS011;29046;54.184;18.680;2023-08-24T02:00:22;4.43;;;1.98;;
43457;SDS011;29046;54.184;18.680;2023-08-24T02:02:50;5.90;;;2.45;;
43457;SDS011;29046;54.184;18.680;2023-08-24T02:05:18;5.47;;;2.40;;
43457;SDS011;29046;54.184;18.680;2023-08-24T02:07:45;5.95;;;2.30;;
43457;SDS011;29046;54.184;18.680;2023-08-24T02:10:13;3.92;;;2.13;;
43457;SDS011;29046;54.184;18.680;2023-08-24T02:12:41;7.22;;;2.45;;
43457;SDS011;29046;54.184;18.680;2023-08-24T02:15:08;4.55;;;2.47;;
43457;SDS011;29046;54.184;18.680;2023-08-24T02:17:36;3.85;;;2.10;;
43457;SDS011;29046;54.184;18.680;2023-08-24T02:20:04;4.40;;;2.90;;
43457;SDS011;29046;54.184;18.680;2023-08-24T02:22:32;4.45;;;2.45;;
43457;SDS011;29046;54.184;18.680;2023-08-24T02:25:00;3.78;;;1.95;;
43457;SDS011;29046;54.184;18.680;2023-08-24T02:27:31;4.07;;;2.13;;
43457;SDS011;29046;54.184;18.680;2023-08-24T02:29:59;6.03;;;2.40;;
43457;SDS011;29046;54.184;18.680;2023-08-24T02:32:27;3.47;;;2.05;;
43457;SDS011;29046;54.184;18.680;2023-08-24T02:34:55;5.70;;;2.38;;
43457;SDS011;29046;54.184;18.680;2023-08-24T02:37:22;4.70;;;2.17;;
43457;SDS011;29046;54.184;18.680;2023-08-24T02:39:50;5.47;;;2.33;;
43457;SDS011;29046;54.184;18.680;2023-08-24T02:42:18;6.45;;;2.30;;
43457;SDS011;29046;54.184;18.680;2023-08-24T02:44:45;5.35;;;2.40;;
43457;SDS011;29046;54.184;18.680;2023-08-24T02:47:13;6.70;;;2.05;;
43457;SDS011;29046;54.184;18.680;2023-08-24T02:49:41;4.78;;;2.10;;
43457;SDS011;29046;54.184;18.680;2023-08-24T02:52:09;3.38;;;2.00;;
43457;SDS011;29046;54.184;18.680;2023-08-24T02:54:36;4.50;;;2.20;;
43457;SDS011;29046;54.184;18.680;2023-08-24T02:57:04;11.82;;;2.40;;
43457;SDS011;29046;54.184;18.680;2023-08-24T02:59:31;7.18;;;2.90;;
43457;SDS011;29046;54.184;18.680;2023-08-24T03:01:59;7.75;;;2.65;;
43457;SDS011;29046;54.184;18.680;2023-08-24T03:04:26;5.10;;;2.42;;
43457;SDS011;29046;54.184;18.680;2023-08-24T03:06:54;6.78;;;2.10;;
43457;SDS011;29046;54.184;18.680;2023-08-24T03:09:22;3.92;;;2.22;;
43457;SDS011;29046;54.184;18.680;2023-08-24T03:11:49;10.85;;;2.83;;
43457;SDS011;29046;54.184;18.680;2023-08-24T03:14:17;3.78;;;2.15;;
43457;SDS011;29046;54.184;18.680;2023-08-24T03:16:45;8.52;;;2.38;;
43457;SDS011;29046;54.184;18.680;2023-08-24T03:19:12;5.60;;;2.42;;
43457;SDS011;29046;54.184;18.680;2023-08-24T03:21:40;5.75;;;2.65;;
43457;SDS011;29046;54.184;18.680;2023-08-24T03:24:08;5.78;;;2.60;;
43457;SDS011;29046;54.184;18.680;2023-08-24T03:26:36;6.47;;;2.20;;
43457;SDS011;29046;54.184;18.680;2023-08-24T03:29:03;5.25;;;2.50;;
43457;SDS011;29046;54.184;18.680;2023-08-24T03:31:31;5.03;;;2.40;;
43457;SDS011;29046;54.184;18.680;2023-08-24T03:33:58;5.25;;;2.10;;
43457;SDS011;29046;54.184;18.680;2023-08-24T03:36:26;3.13;;;2.10;;
43457;SDS011;29046;54.184;18.680;2023-08-24T03:38:54;5.45;;;2.10;;
43457;SDS011;29046;54.184;18.680;2023-08-24T03:41:22;6.07;;;2.15;;
43457;SDS011;29046;54.184;18.680;2023-08-24T03:43:50;5.18;;;2.55;;
43457;SDS011;29046;54.184;18.680;2023-08-24T03:46:17;5.80;;;2.30;;
43457;SDS011;29046;54.184;18.680;2023-08-24T03:48:45;5.60;;;2.47;;
43457;SDS011;29046;54.184;18.680;2023-08-24T03:51:12;5.50;;;2.53;;
43457;SDS011;29046;54.184;18.680;2023-08-24T03:53:40;5.10;;;2.40;;
43457;SDS011;29046;54.184;18.680;2023-08-24T03:56:07;6.65;;;2.40;;
43457;SDS011;29046;54.184;18.680;2023-08-24T03:58:35;6.75;;;2.25;;
43457;SDS011;29046;54.184;18.680;2023-08-24T04:01:03;2.72;;;1.92;;
43457;SDS011;29046;54.184;18.680;2023-08-24T04:03:33;4.10;;;2.10;;
43457;SDS011;29046;54.184;18.680;2023-08-24T04:06:01;4.00;;;2.03;;
43457;SDS011;29046;54.184;18.680;2023-08-24T04:08:28;9.35;;;2.28;;
43457;SDS011;29046;54.184;18.680;2023-08-24T04:10:56;6.47;;;2.28;;
43457;SDS011;29046;54.184;18.680;2023-08-24T04:13:24;7.28;;;2.20;;
43457;SDS011;29046;54.184;18.680;2023-08-24T04:15:51;2.70;;;1.90;;
43457;SDS011;29046;54.184;18.680;2023-08-24T04:18:19;3.28;;;1.70;;
43457;SDS011;29046;54.184;18.680;2023-08-24T04:20:46;2.78;;;1.90;;
43457;SDS011;29046;54.184;18.680;2023-08-24T04:23:14;6.05;;;2.10;;
43457;SDS011;29046;54.184;18.680;2023-08-24T04:25:42;3.17;;;1.60;;
43457;SDS011;29046;54.184;18.680;2023-08-24T04:28:10;5.20;;;1.98;;
43457;SDS011;29046;54.184;18.680;2023-08-24T04:30:37;5.53;;;1.98;;
43457;SDS011;29046;54.184;18.680;2023-08-24T04:33:06;4.05;;;2.03;;
43457;SDS011;29046;54.184;18.680;2023-08-24T04:35:34;3.97;;;1.95;;
43457;SDS011;29046;54.184;18.680;2023-08-24T04:38:02;6.22;;;2.00;;
43457;SDS011;29046;54.184;18.680;2023-08-24T04:40:38;6.20;;;2.25;;
43457;SDS011;29046;54.184;18.680;2023-08-24T04:43:10;7.63;;;2.00;;
43457;SDS011;29046;54.184;18.680;2023-08-24T04:45:38;3.25;;;1.70;;
43457;SDS011;29046;54.184;18.680;2023-08-24T04:48:05;7.72;;;2.05;;
43457;SDS011;29046;54.184;18.680;2023-08-24T04:50:33;3.35;;;1.60;;
43457;SDS011;29046;54.184;18.680;2023-08-24T04:53:01;6.68;;;1.70;;
43457;SDS011;29046;54.184;18.680;2023-08-24T04:55:28;5.82;;;1.85;;
43457;SDS011;29046;54.184;18.680;2023-08-24T04:57:56;6.28;;;2.20;;
43457;SDS011;29046;54.184;18.680;2023-08-24T05:00:23;4.93;;;1.70;;
43457;SDS011;29046;54.184;18.680;2023-08-24T05:02:51;4.07;;;1.77;;
43457;SDS011;29046;54.184;18.680;2023-08-24T05:05:18;3.13;;;1.70;;
43457;SDS011;29046;54.184;18.680;2023-08-24T05:07:46;3.88;;;1.65;;
43457;SDS011;29046;54.184;18.680;2023-08-24T05:10:15;4.43;;;2.47;;
43457;SDS011;29046;54.184;18.680;2023-08-24T05:12:42;3.70;;;1.83;;
43457;SDS011;29046;54.184;18.680;2023-08-24T05:15:10;4.70;;;1.70;;
43457;SDS011;29046;54.184;18.680;2023-08-24T05:17:37;3.35;;;1.60;;
43457;SDS011;29046;54.184;18.680;2023-08-24T05:20:06;4.68;;;2.30;;
43457;SDS011;29046;54.184;18.680;2023-08-24T05:22:37;4.78;;;1.70;;
43457;SDS011;29046;54.184;18.680;2023-08-24T05:25:05;7.20;;;1.58;;
43457;SDS011;29046;54.184;18.680;2023-08-24T05:27:32;3.83;;;1.58;;
43457;SDS011;29046;54.184;18.680;2023-08-24T05:30:00;5.28;;;2.30;;
43457;SDS011;29046;54.184;18.680;2023-08-24T05:32:27;4.45;;;1.60;;
43457;SDS011;29046;54.184;18.680;2023-08-24T05:34:55;3.15;;;1.77;;
43457;SDS011;29046;54.184;18.680;2023-08-24T05:37:23;3.55;;;2.17;;
43457;SDS011;29046;54.184;18.680;2023-08-24T05:39:51;2.50;;;1.60;;
43457;SDS011;29046;54.184;18.680;2023-08-24T05:42:18;4.75;;;1.65;;
43457;SDS011;29046;54.184;18.680;2023-08-24T05:44:46;4.60;;;1.90;;
43457;SDS011;29046;54.184;18.680;2023-08-24T05:47:14;4.78;;;1.80;;
43457;SDS011;29046;54.184;18.680;2023-08-24T05:49:41;4.10;;;1.80;;
43457;SDS011;29046;54.184;18.680;2023-08-24T05:52:09;3.28;;;1.60;;
43457;SDS011;29046;54.184;18.680;2023-08-24T05:54:36;1.83;;;1.42;;
43457;SDS011;29046;54.184;18.680;2023-08-24T05:57:04;3.85;;;1.70;;
43457;SDS011;29046;54.184;18.680;2023-08-24T05:59:32;3.95;;;1.65;;
43457;SDS011;29046;54.184;18.680;2023-08-24T06:02:02;5.78;;;1.80;;
43457;SDS011;29046;54.184;18.680;2023-08-24T06:04:30;3.45;;;1.67;;
43457;SDS011;29046;54.184;18.680;2023-08-24T06:06:58;6.25;;;1.90;;
43457;SDS011;29046;54.184;18.680;2023-08-24T06:09:25;5.03;;;1.85;;
43457;SDS011;29046;54.184;18.680;2023-08-24T06:11:53;2.25;;;1.60;;
43457;SDS011;29046;54.184;18.680;2023-08-24T06:14:20;3.00;;;1.67;;
43457;SDS011;29046;54.184;18.680;2023-08-24T06:16:48;4.28;;;2.15;;
43457;SDS011;29046;54.184;18.680;2023-08-24T06:19:16;4.35;;;2.25;;
43457;SDS011;29046;54.184;18.680;2023-08-24T06:21:43;3.45;;;1.83;;
43457;SDS011;29046;54.184;18.680;2023-08-24T06:24:11;3.17;;;1.50;;
43457;SDS011;29046;54.184;18.680;2023-08-24T06:26:39;3.85;;;1.83;;
43457;SDS011;29046;54.184;18.680;2023-08-24T06:29:06;2.60;;;1.52;;
43457;SDS011;29046;54.184;18.680;2023-08-24T06:31:34;2.90;;;1.50;;
43457;SDS011;29046;54.184;18.680;2023-08-24T06:34:01;5.20;;;1.75;;
43457;SDS011;29046;54.184;18.680;2023-08-24T06:36:29;3.83;;;1.67;;
43457;SDS011;29046;54.184;18.680;2023-08-24T06:38:56;7.88;;;2.20;;
43457;SDS011;29046;54.184;18.680;2023-08-24T06:41:25;6.00;;;1.58;;
43457;SDS011;29046;54.184;18.680;2023-08-24T06:43:52;3.20;;;1.92;;
43457;SDS011;29046;54.184;18.680;2023-08-24T06:46:22;4.68;;;1.83;;
43457;SDS011;29046;54.184;18.680;2023-08-24T06:48:49;4.80;;;2.13;;
43457;SDS011;29046;54.184;18.680;2023-08-24T06:51:17;4.82;;;1.80;;
43457;SDS011;29046;54.184;18.680;2023-08-24T06:53:44;2.28;;;1.80;;
43457;SDS011;29046;54.184;18.680;2023-08-24T06:56:15;7.32;;;2.30;;
43457;SDS011;29046;54.184;18.680;2023-08-24T06:58:44;3.20;;;1.98;;
43457;SDS011;29046;54.184;18.680;2023-08-24T07:01:12;3.28;;;2.05;;
43457;SDS011;29046;54.184;18.680;2023-08-24T07:03:39;3.85;;;1.75;;
43457;SDS011;29046;54.184;18.680;2023-08-24T07:06:07;5.93;;;1.98;;
43457;SDS011;29046;54.184;18.680;2023-08-24T07:08:35;4.68;;;2.22;;
43457;SDS011;29046;54.184;18.680;2023-08-24T07:11:04;4.22;;;2.25;;
43457;SDS011;29046;54.184;18.680;2023-08-24T07:13:32;4.10;;;2.20;;
43457;SDS011;29046;54.184;18.680;2023-08-24T07:15:59;4.78;;;1.83;;
43457;SDS011;29046;54.184;18.680;2023-08-24T07:18:27;4.13;;;1.88;;
43457;SDS011;29046;54.184;18.680;2023-08-24T07:20:55;3.05;;;1.90;;
43457;SDS011;29046;54.184;18.680;2023-08-24T07:23:22;4.25;;;1.90;;
43457;SDS011;29046;54.184;18.680;2023-08-24T07:25:50;6.57;;;1.90;;
43457;SDS011;29046;54.184;18.680;2023-08-24T07:28:17;5.72;;;1.92;;
43457;SDS011;29046;54.184;18.680;2023-08-24T07:30:45;6.40;;;2.05;;
43457;SDS011;29046;54.184;18.680;2023-08-24T07:33:12;3.92;;;1.70;;
43457;SDS011;29046;54.184;18.680;2023-08-24T07:35:40;5.50;;;2.53;;
43457;SDS011;29046;54.184;18.680;2023-08-24T07:38:07;5.95;;;2.05;;
43457;SDS011;29046;54.184;18.680;2023-08-24T07:40:35;5.88;;;2.25;;
43457;SDS011;29046;54.184;18.680;2023-08-24T07:43:03;3.70;;;1.70;;
43457;SDS011;29046;54.184;18.680;2023-08-24T07:45:31;4.72;;;1.85;;
43457;SDS011;29046;54.184;18.680;2023-08-24T07:48:00;5.60;;;2.47;;
43457;SDS011;29046;54.184;18.680;2023-08-24T07:50:27;2.80;;;1.70;;
43457;SDS011;29046;54.184;18.680;2023-08-24T07:52:55;7.43;;;1.90;;
43457;SDS011;29046;54.184;18.680;2023-08-24T07:55:23;8.15;;;2.25;;
43457;SDS011;29046;54.184;18.680;2023-08-24T07:57:52;4.88;;;2.03;;
43457;SDS011;29046;54.184;18.680;2023-08-24T08:00:19;7.75;;;1.70;;
43457;SDS011;29046;54.184;18.680;2023-08-24T08:02:50;2.90;;;1.60;;
43457;SDS011;29046;54.184;18.680;2023-08-24T08:05:18;4.60;;;1.75;;
43457;SDS011;29046;54.184;18.680;2023-08-24T08:07:46;7.10;;;1.92;;
43457;SDS011;29046;54.184;18.680;2023-08-24T08:10:14;4.78;;;1.85;;
43457;SDS011;29046;54.184;18.680;2023-08-24T08:12:43;6.28;;;2.67;;
43457;SDS011;29046;54.184;18.680;2023-08-24T08:15:11;4.00;;;2.08;;
43457;SDS011;29046;54.184;18.680;2023-08-24T08:17:38;5.60;;;2.30;;
43457;SDS011;29046;54.184;18.680;2023-08-24T08:20:07;2.58;;;1.77;;
43457;SDS011;29046;54.184;18.680;2023-08-24T08:22:35;7.70;;;2.38;;
43457;SDS011;29046;54.184;18.680;2023-08-24T08:25:06;3.65;;;1.88;;
43457;SDS011;29046;54.184;18.680;2023-08-24T08:27:33;5.28;;;2.13;;
43457;SDS011;29046;54.184;18.680;2023-08-24T08:30:01;4.93;;;2.25;;
43457;SDS011;29046;54.184;18.680;2023-08-24T08:32:31;5.07;;;2.55;;
43457;SDS011;29046;54.184;18.680;2023-08-24T08:34:59;4.90;;;1.98;;
43457;SDS011;29046;54.184;18.680;2023-08-24T08:37:27;3.45;;;1.88;;
43457;SDS011;29046;54.184;18.680;2023-08-24T08:39:55;5.15;;;1.92;;
43457;SDS011;29046;54.184;18.680;2023-08-24T08:42:22;2.47;;;1.65;;
43457;SDS011;29046;54.184;18.680;2023-08-24T08:44:50;4.25;;;1.98;;
43457;SDS011;29046;54.184;18.680;2023-08-24T08:47:20;2.78;;;2.00;;
43457;SDS011;29046;54.184;18.680;2023-08-24T08:49:51;3.60;;;2.13;;
43457;SDS011;29046;54.184;18.680;2023-08-24T08:52:19;4.15;;;2.17;;
43457;SDS011;29046;54.184;18.680;2023-08-24T08:54:47;3.00;;;1.75;;
43457;SDS011;29046;54.184;18.680;2023-08-24T08:57:15;2.35;;;2.03;;
43457;SDS011;29046;54.184;18.680;2023-08-24T08:59:43;5.45;;;2.55;;
43457;SDS011;29046;54.184;18.680;2023-08-24T09:02:13;2.75;;;1.70;;
43457;SDS011;29046;54.184;18.680;2023-08-24T09:04:41;2.88;;;1.83;;
43457;SDS011;29046;54.184;18.680;2023-08-24T09:07:14;2.55;;;1.58;;
43457;SDS011;29046;54.184;18.680;2023-08-24T09:09:42;5.57;;;2.10;;
43457;SDS011;29046;54.184;18.680;2023-08-24T09:12:10;4.18;;;2.33;;
43457;SDS011;29046;54.184;18.680;2023-08-24T09:14:38;3.92;;;1.80;;
43457;SDS011;29046;54.184;18.680;2023-08-24T09:17:07;3.80;;;1.92;;
43457;SDS011;29046;54.184;18.680;2023-08-24T09:19:35;4.75;;;1.90;;
43457;SDS011;29046;54.184;18.680;2023-08-24T09:22:05;3.47;;;1.85;;
43457;SDS011;29046;54.184;18.680;2023-08-24T09:24:35;3.65;;;1.95;;
43457;SDS011;29046;54.184;18.680;2023-08-24T09:27:16;2.83;;;1.88;;
43457;SDS011;29046;54.184;18.680;2023-08-24T09:29:47;3.45;;;2.30;;
43457;SDS011;29046;54.184;18.680;2023-08-24T09:32:15;2.35;;;1.70;;
43457;SDS011;29046;54.184;18.680;2023-08-24T09:34:49;5.78;;;2.85;;
43457;SDS011;29046;54.184;18.680;2023-08-24T09:37:17;5.10;;;2.30;;
43457;SDS011;29046;54.184;18.680;2023-08-24T09:39:44;6.38;;;2.05;;
43457;SDS011;29046;54.184;18.680;2023-08-24T09:42:12;2.03;;;1.67;;
43457;SDS011;29046;54.184;18.680;2023-08-24T09:44:43;7.32;;;2.25;;
43457;SDS011;29046;54.184;18.680;2023-08-24T09:47:12;5.63;;;2.13;;
43457;SDS011;29046;54.184;18.680;2023-08-24T09:49:39;2.40;;;1.85;;
43457;SDS011;29046;54.184;18.680;2023-08-24T09:52:08;2.80;;;1.90;;
43457;SDS011;29046;54.184;18.680;2023-08-24T09:54:36;2.90;;;1.90;;
43457;SDS011;29046;54.184;18.680;2023-08-24T09:57:05;2.58;;;1.92;;
43457;SDS011;29046;54.184;18.680;2023-08-24T09:59:37;2.58;;;1.88;;
43457;SDS011;29046;54.184;18.680;2023-08-24T10:02:09;3.03;;;1.80;;
43457;SDS011;29046;54.184;18.680;2023-08-24T10:04:42;1.95;;;1.77;;
43457;SDS011;29046;54.184;18.680;2023-08-24T10:07:10;2.15;;;1.95;;
43457;SDS011;29046;54.184;18.680;2023-08-24T10:09:45;2.10;;;1.80;;
43457;SDS011;29046;54.184;18.680;2023-08-24T10:12:14;2.13;;;1.60;;
43457;SDS011;29046;54.184;18.680;2023-08-24T10:15:01;2.60;;;1.80;;
43457;SDS011;29046;54.184;18.680;2023-08-24T10:17:31;2.80;;;1.70;;
43457;SDS011;29046;54.184;18.680;2023-08-24T10:20:00;3.50;;;1.77;;
43457;SDS011;29046;54.184;18.680;2023-08-24T10:22:31;3.63;;;2.17;;
43457;SDS011;29046;54.184;18.680;2023-08-24T10:24:59;4.63;;;1.98;;
43457;SDS011;29046;54.184;18.680;2023-08-24T10:27:27;1.98;;;1.80;;
43457;SDS011;29046;54.184;18.680;2023-08-24T10:29:55;3.28;;;2.03;;
43457;SDS011;29046;54.184;18.680;2023-08-24T10:32:24;4.07;;;2.33;;
43457;SDS011;29046;54.184;18.680;2023-08-24T10:34:53;5.15;;;2.25;;
43457;SDS011;29046;54.184;18.680;2023-08-24T10:37:26;4.57;;;2.25;;
43457;SDS011;29046;54.184;18.680;2023-08-24T10:39:54;3.00;;;2.08;;
43457;SDS011;29046;54.184;18.680;2023-08-24T10:42:22;8.13;;;2.58;;
43457;SDS011;29046;54.184;18.680;2023-08-24T10:44:50;6.70;;;2.60;;
43457;SDS011;29046;54.184;18.680;2023-08-24T10:49:56;3.55;;;2.17;;
43457;SDS011;29046;54.184;18.680;2023-08-24T10:55:00;7.72;;;2.45;;
43457;SDS011;29046;54.184;18.680;2023-08-24T10:57:34;6.78;;;2.60;;
43457;SDS011;29046;54.184;18.680;2023-08-24T11:00:04;6.55;;;2.35;;
43457;SDS011;29046;54.184;18.680;2023-08-24T11:05:16;3.17;;;2.70;;
43457;SDS011;29046;54.184;18.680;2023-08-24T11:07:47;3.85;;;2.58;;
43457;SDS011;29046;54.184;18.680;2023-08-24T11:10:15;4.18;;;2.45;;
43457;SDS011;29046;54.184;18.680;2023-08-24T11:15:39;3.92;;;2.72;;
43457;SDS011;29046;54.184;18.680;2023-08-24T11:23:18;5.53;;;2.45;;
43457;SDS011;29046;54.184;18.680;2023-08-24T11:25:46;7.05;;;2.80;;
43457;SDS011;29046;54.184;18.680;2023-08-24T11:28:17;3.83;;;2.10;;
43457;SDS011;29046;54.184;18.680;2023-08-24T11:30:45;5.43;;;2.53;;
43457;SDS011;29046;54.184;18.680;2023-08-24T11:33:13;2.92;;;2.50;;
43457;SDS011;29046;54.184;18.680;2023-08-24T11:35:42;3.35;;;2.35;;
43457;SDS011;29046;54.184;18.680;2023-08-24T11:38:10;2.60;;;2.40;;
43457;SDS011;29046;54.184;18.680;2023-08-24T11:40:39;6.45;;;2.53;;
43457;SDS011;29046;54.184;18.680;2023-08-24T11:43:06;2.78;;;2.40;;
43457;SDS011;29046;54.184;18.680;2023-08-24T11:45:35;4.13;;;2.17;;
43457;SDS011;29046;54.184;18.680;2023-08-24T11:48:08;2.78;;;2.35;;
43457;SDS011;29046;54.184;18.680;2023-08-24T11:50:37;5.50;;;2.58;;
43457;SDS011;29046;54.184;18.680;2023-08-24T11:53:06;2.45;;;1.98;;
43457;SDS011;29046;54.184;18.680;2023-08-24T11:55:34;3.47;;;2.22;;
43457;SDS011;29046;54.184;18.680;2023-08-24T11:58:21;6.38;;;2.40;;
43457;SDS011;29046;54.184;18.680;2023-08-24T12:00:48;9.05;;;2.30;;
43457;SDS011;29046;54.184;18.680;2023-08-24T12:03:16;9.35;;;2.55;;
43457;SDS011;29046;54.184;18.680;2023-08-24T12:05:44;5.45;;;2.30;;
43457;SDS011;29046;54.184;18.680;2023-08-24T12:08:11;4.55;;;2.30;;
43457;SDS011;29046;54.184;18.680;2023-08-24T12:10:42;3.63;;;2.10;;
43457;SDS011;29046;54.184;18.680;2023-08-24T12:13:11;3.85;;;2.45;;
43457;SDS011;29046;54.184;18.680;2023-08-24T12:15:40;6.35;;;2.45;;
43457;SDS011;29046;54.184;18.680;2023-08-24T12:20:35;3.60;;;2.17;;
43457;SDS011;29046;54.184;18.680;2023-08-24T12:23:03;6.70;;;2.65;;
43457;SDS011;29046;54.184;18.680;2023-08-24T12:25:30;3.63;;;2.58;;
43457;SDS011;29046;54.184;18.680;2023-08-24T12:28:08;3.42;;;2.22;;
43457;SDS011;29046;54.184;18.680;2023-08-24T12:30:52;2.58;;;2.10;;
43457;SDS011;29046;54.184;18.680;2023-08-24T12:33:30;4.97;;;2.38;;
43457;SDS011;29046;54.184;18.680;2023-08-24T12:35:58;3.47;;;2.40;;
43457;SDS011;29046;54.184;18.680;2023-08-24T12:38:26;6.60;;;2.53;;
43457;SDS011;29046;54.184;18.680;2023-08-24T12:40:54;3.50;;;2.35;;
43457;SDS011;29046;54.184;18.680;2023-08-24T12:43:21;3.47;;;2.13;;
43457;SDS011;29046;54.184;18.680;2023-08-24T12:45:49;2.88;;;2.17;;
43457;SDS011;29046;54.184;18.680;2023-08-24T12:48:16;7.80;;;2.10;;
43457;SDS011;29046;54.184;18.680;2023-08-24T12:50:44;4.30;;;2.60;;
43457;SDS011;29046;54.184;18.680;2023-08-24T12:53:11;4.35;;;2.40;;
43457;SDS011;29046;54.184;18.680;2023-08-24T12:55:39;3.58;;;2.50;;
43457;SDS011;29046;54.184;18.680;2023-08-24T12:58:07;3.13;;;2.40;;
43457;SDS011;29046;54.184;18.680;2023-08-24T13:00:35;5.30;;;2.50;;
43457;SDS011;29046;54.184;18.680;2023-08-24T13:03:02;4.20;;;2.38;;
43457;SDS011;29046;54.184;18.680;2023-08-24T13:05:30;3.35;;;2.40;;
43457;SDS011;29046;54.184;18.680;2023-08-24T13:08:00;2.97;;;2.17;;
43457;SDS011;29046;54.184;18.680;2023-08-24T13:10:28;2.75;;;2.00;;
43457;SDS011;29046;54.184;18.680;2023-08-24T13:12:55;4.03;;;2.30;;
43457;SDS011;29046;54.184;18.680;2023-08-24T13:15:23;4.72;;;2.47;;
43457;SDS011;29046;54.184;18.680;2023-08-24T13:17:51;5.38;;;2.80;;
43457;SDS011;29046;54.184;18.680;2023-08-24T13:20:19;6.03;;;2.60;;
43457;SDS011;29046;54.184;18.680;2023-08-24T13:22:46;3.30;;;2.33;;
43457;SDS011;29046;54.184;18.680;2023-08-24T13:25:14;3.63;;;2.10;;
43457;SDS011;29046;54.184;18.680;2023-08-24T13:27:41;2.83;;;2.25;;
43457;SDS011;29046;54.184;18.680;2023-08-24T13:30:09;6.45;;;2.65;;
43457;SDS011;29046;54.184;18.680;2023-08-24T13:32:37;6.20;;;3.40;;
43457;SDS011;29046;54.184;18.680;2023-08-24T13:35:06;5.82;;;2.35;;
43457;SDS011;29046;54.184;18.680;2023-08-24T13:37:35;6.38;;;2.40;;
43457;SDS011;29046;54.184;18.680;2023-08-24T13:40:03;4.38;;;2.47;;
43457;SDS011;29046;54.184;18.680;2023-08-24T13:42:31;8.85;;;2.30;;
43457;SDS011;29046;54.184;18.680;2023-08-24T13:44:58;3.33;;;2.30;;
43457;SDS011;29046;54.184;18.680;2023-08-24T13:47:26;5.13;;;2.70;;
43457;SDS011;29046;54.184;18.680;2023-08-24T13:49:54;8.13;;;2.40;;
43457;SDS011;29046;54.184;18.680;2023-08-24T13:52:21;3.22;;;2.67;;
43457;SDS011;29046;54.184;18.680;2023-08-24T13:54:49;20.60;;;12.32;;
43457;SDS011;29046;54.184;18.680;2023-08-24T13:57:36;14.95;;;4.68;;
43457;SDS011;29046;54.184;18.680;2023-08-24T14:00:04;12.10;;;4.47;;
43457;SDS011;29046;54.184;18.680;2023-08-24T14:02:34;9.57;;;3.72;;
43457;SDS011;29046;54.184;18.680;2023-08-24T14:05:02;19.85;;;8.45;;
43457;SDS011;29046;54.184;18.680;2023-08-24T14:07:30;12.82;;;6.65;;
43457;SDS011;29046;54.184;18.680;2023-08-24T14:09:57;32.28;;;12.70;;
43457;SDS011;29046;54.184;18.680;2023-08-24T14:12:31;16.25;;;7.40;;
43457;SDS011;29046;54.184;18.680;2023-08-24T14:15:00;25.00;;;9.00;;
43457;SDS011;29046;54.184;18.680;2023-08-24T14:17:27;96.07;;;30.33;;
43457;SDS011;29046;54.184;18.680;2023-08-24T14:19:55;64.10;;;21.27;;
43457;SDS011;29046;54.184;18.680;2023-08-24T14:22:23;17.98;;;6.07;;
43457;SDS011;29046;54.184;18.680;2023-08-24T14:24:50;10.07;;;3.85;;
43457;SDS011;29046;54.184;18.680;2023-08-24T14:27:18;15.43;;;6.07;;
43457;SDS011;29046;54.184;18.680;2023-08-24T14:29:45;5.13;;;3.13;;
43457;SDS011;29046;54.184;18.680;2023-08-24T14:32:13;3.47;;;2.42;;
43457;SDS011;29046;54.184;18.680;2023-08-24T14:34:40;22.88;;;8.90;;
43457;SDS011;29046;54.184;18.680;2023-08-24T14:37:08;31.70;;;12.13;;
43457;SDS011;29046;54.184;18.680;2023-08-24T14:39:36;6.80;;;2.38;;
43457;SDS011;29046;54.184;18.680;2023-08-24T14:42:03;3.17;;;1.92;;
43457;SDS011;29046;54.184;18.680;2023-08-24T14:44:31;4.05;;;2.40;;
43457;SDS011;29046;54.184;18.680;2023-08-24T14:46:58;7.13;;;2.63;;
43457;SDS011;29046;54.184;18.680;2023-08-24T14:49:26;4.10;;;2.90;;
43457;SDS011;29046;54.184;18.680;2023-08-24T14:51:55;5.20;;;2.65;;
43457;SDS011;29046;54.184;18.680;2023-08-24T14:54:23;8.77;;;4.72;;
43457;SDS011;29046;54.184;18.680;2023-08-24T14:56:50;5.18;;;3.38;;
43457;SDS011;29046;54.184;18.680;2023-08-24T14:59:18;8.05;;;2.72;;
43457;SDS011;29046;54.184;18.680;2023-08-24T15:01:45;5.75;;;3.10;;
43457;SDS011;29046;54.184;18.680;2023-08-24T15:04:13;3.55;;;2.58;;
43457;SDS011;29046;54.184;18.680;2023-08-24T15:06:40;3.67;;;2.58;;
43457;SDS011;29046;54.184;18.680;2023-08-24T15:09:08;6.32;;;3.33;;
43457;SDS011;29046;54.184;18.680;2023-08-24T15:11:36;4.53;;;2.72;;